Aviation Digital Data Service (ADDS)

Output produced by METARs form (1529 UTC 31 March 2015)
found at http://aviationweather.gov/adds/metars/
 
KBDR 311432Z 3115/0112 23007KT P6SM SCT040 BKN100 
     FM312100 VRB04KT 4SM -RASN BR BKN015 OVC050 
     FM010000 03006KT 1SM -SN BR OVC008 
     FM010300 36008KT P6SM SCT010 OVC040 
     FM010700 35008KT P6SM BKN250